Great Falls, MT

7:22 PM MDT on September 18, 2014 (GMT -0600)
Spicer's | Change Station
CLOSE
Current Station
Personal Weather Station
Location: Great Falls, MT
Elevation: 3323 ft
Nearby Weather Stations

Elev 3323 ft 47.51 °N, 111.32 °W | Updated 4 seconds ago

Clear
Clear
75.2 °F
Feels Like 78 °F
N
1.0
Wind Variable Wind from South

Today
High -- | Low -- °F
--% Chance of Precip.
Yesterday
High -- | Low -- °F
Precip. -- in
7:06 AM 7:30 PM
Waning Crescent, 23% visible
Pressure 29.62 in
Visibility 9.0 miles
Clouds Clear
Heat Index 78 °F
Dew Point 49 °F
Humidity 39%
Rainfall 0.00 in
Snow Depth 0 in , 0 in , 0 in
UV 0 out of 12
Pollen 7.60 out of 12
Air Quality Not available.
Flu Activity Not available.
METAR KGTF 190053Z 22010KT 9SM HZ FU CLR 22/08 A2970 RMK AO2 SLP031 T02170083 $

More Conditions Fewer Conditions

Pressure 29.62 in
Visibility 9.0 miles
Clouds Clear
Heat Index 78 °F
Dew Point 49 °F
Humidity 39%
Rainfall 0.00 in
Snow Depth 0 in , 0 in , 0 in
UV 0 out of 12
Pollen 7.60 out of 12
Air Quality Not available.
Flu Activity Not available.
METAR KGTF 190053Z 22010KT 9SM HZ FU CLR 22/08 A2970 RMK AO2 SLP031 T02170083 $

More Conditions Fewer Conditions

10-Day Weather Forecast

Almanac

Astronomy

Sep. 18, 2014 Rise Set
Actual Time 7:06 AM MDT 7:30 PM MDT
Civil Twilight 6:35 AM MDT 8:01 PM MDT
Nautical Twilight 5:59 AM MDT 8:38 PM MDT
Astronomical Twilight 5:21 AM MDT 9:15 PM MDT
Moon 1:45 AM MDT (9/18) 4:39 PM MDT (9/18)
Length of Visible Light 13h 25m
Length of Day
12h 24m
Tomorrow will be 3m 23s shorter.
Waning Crescent, 23% of the Moon is Illuminated
Today
Waning Crescent
Sep 24
New
Oct 1
First Quarter
Oct 8
Full
Oct 15
Last Quarter

Today's Extremes

State Highs State Lows

Community

WunderPhotos

Upload Photos

1,754,524 photos uploaded!

Nearby

Snow Depth

Station Depth Elevation
Stringer Creek 0 in 6550 ft
Bloody Dick 0 in 7550 ft
Spur Park 0 in 8100 ft
Monument Peak 0 in 8850 ft
Tizer Basin 0 in 6840 ft

Earthquake Activity

City Distance Mag. Time & Date
No recent earthquake activity has been reported nearby.
Minimum magnitude displayed is 2.5.

Coastal Water Temperatures

Place Temperature
No Stations Reporting

Nearby Weather Stations